Portada
METAR-TAF:

METAR-TAF

Aeropuertos :

Foggia, Italia

latitud: 41-25-58N, longitud: 015-32-06E, altitud: 81 m

Observación

El informe se hizo hace 1 hora y 7 minutos, a las 11:50 UTC
Viento 19 kt del norte-noroeste
Temperatura 17°C
Humedad 42%
Presión 1014 hPa
Visibilidad 10 km o más
sin nubes por debajo de 1500 m y sin presencia de cumulonimbus.

METAR: LIBF 041150Z 33019KT CAVOK 17/04 Q1014

Hora: 14:57 (12:57 UTC)


TAF: falta

Observaciones y pronósticos meteorológicos de más de 4000 aeropuertos (mensajes METAR y TAF).

Los puntos amarillos y rojos representan las estaciones disponibles.

Ponga el ratón en el punto deseado para ver el nombre de la estación.

Haga clic para ver las observaciones y los pronósticos meteorológicos.

Para cambiar el mapa : haga clic en los botones verdes con una cruz de color negro para hacer un zoom, en el botón verde con un guión para alejar o en las flechas verdes para mapas adyacentes.


METAR-TAF: